logo
Rechercher aéroport 
image banner adimage banner adimage banner ad
image banner ad

OTHH - Hamad Intl

Situé à Doha, Qatar

ICAO - , IATA - DOH

Données fournies par Airmate  

Information générale

Coordonnées: N25°16'28" E51°36'30"
Élévation : 13 feet MSL.
 
Voir autres Aéroports à Ad Dawhah Municipality

Données opérationnelles

Special qualification required
Heure actuelle UTC:
Heure actuelle locale:
Météo
METAR: OTHH 222300Z AUTO 14006KT CAVOK 30/24 Q1001 NOSIG
TAF: TAF OTHH 221707Z 2218/2324 02008KT CAVOK TEMPO 2218/2306 31008KT TEMPO 2220/2301 18006KT TEMPO 2302/2305 25006KT TEMPO 2220/2306 VRB02KT
Voir NOTAMs / SUP AIP / TFR affectant cet aéroport [VIEW]
Fréquences de communication: [VIEW]

Pistes:

Identifiant RWYQFULongueur (ft)Largeur (ft)SurfaceLDA (ft)
16R158°13944197UNK
34L338°13944197UNK
16L158°15912197UNK
34R338°15912197UNK

Coordonnées de l'aéroport

Adresse: Doha Qatar

Vue satellite de OTHH